createdAt,value
2022-08-05T00:01:27.790Z,96974.78
2022-08-05T00:03:57.013Z,97002.13
2022-08-05T00:06:30.761Z,97014.22
2022-08-05T00:09:00.518Z,97020.72
2022-08-05T00:11:34.901Z,97016.34
2022-08-05T00:14:02.559Z,96981.50
2022-08-05T00:16:52.699Z,96978.75
2022-08-05T00:19:22.682Z,96965.38
2022-08-05T00:21:50.063Z,96967.72
2022-08-05T00:24:19.364Z,96958.50
2022-08-05T00:26:53.011Z,96952.28
2022-08-05T00:29:22.693Z,96970.88
2022-08-05T00:32:10.530Z,96949.69
2022-08-05T00:34:54.292Z,96947.00
2022-08-05T00:37:27.729Z,96949.81
2022-08-05T00:40:13.900Z,96941.91
2022-08-05T00:42:49.120Z,96937.84
2022-08-05T00:45:16.607Z,96937.84
2022-08-05T00:47:57.729Z,96933.41
2022-08-05T00:50:32.652Z,96928.78
2022-08-05T00:52:59.276Z,96941.59
2022-08-05T00:55:34.163Z,96935.69
2022-08-05T00:58:13.777Z,96945.00
2022-08-05T01:00:40.868Z,96937.47
2022-08-05T01:03:10.382Z,96943.47
2022-08-05T01:05:48.764Z,96933.81
2022-08-05T01:08:42.156Z,96932.44
2022-08-05T01:11:22.709Z,96935.13
2022-08-05T01:14:00.047Z,96925.22
2022-08-05T01:16:45.551Z,96915.84
2022-08-05T01:19:36.508Z,96916.72
2022-08-05T01:22:27.929Z,96916.72
2022-08-05T01:24:57.815Z,96921.00
2022-08-05T01:28:01.926Z,96915.75
2022-08-05T01:30:34.058Z,96905.78
2022-08-05T01:33:03.826Z,96920.19
2022-08-05T01:35:51.342Z,96910.25
2022-08-05T01:38:26.830Z,96906.19
2022-08-05T01:40:54.482Z,96899.00
2022-08-05T01:43:24.028Z,96896.63
2022-08-05T01:45:56.167Z,96894.78
2022-08-05T01:48:24.195Z,96890.66
2022-08-05T01:50:51.563Z,96891.13
2022-08-05T01:53:54.805Z,96881.97
2022-08-05T01:56:09.674Z,96886.84
2022-08-05T01:58:45.023Z,96885.44
2022-08-05T02:01:13.570Z,96891.13
2022-08-05T02:03:44.273Z,96897.13
2022-08-05T02:06:33.793Z,96887.16
2022-08-05T02:08:59.237Z,96883.75
2022-08-05T02:11:32.730Z,96886.50
2022-08-05T02:14:05.858Z,96884.56
2022-08-05T02:16:42.250Z,96885.22
2022-08-05T02:19:34.746Z,96894.94
2022-08-05T02:22:25.396Z,96886.84
2022-08-05T02:24:56.030Z,96885.63
2022-08-05T02:27:29.958Z,96884.31
2022-08-05T02:30:10.928Z,96879.53
2022-08-05T02:32:38.325Z,96883.75
2022-08-05T02:35:14.073Z,96897.69
2022-08-05T02:37:42.948Z,96885.69
2022-08-05T02:40:16.844Z,96896.72
2022-08-05T02:42:44.843Z,96905.38
2022-08-05T02:45:20.802Z,96919.06
2022-08-05T02:48:09.932Z,96914.19
2022-08-05T02:50:38.310Z,96924.56
2022-08-05T02:53:11.695Z,96909.19
2022-08-05T02:55:53.912Z,96922.78
2022-08-05T02:58:23.161Z,96928.94
2022-08-05T03:00:55.898Z,96942.22
2022-08-05T03:03:23.553Z,96939.97
2022-08-05T03:06:53.943Z,96940.63
2022-08-05T03:08:39.161Z,96957.56
2022-08-05T03:11:55.196Z,96974.97
2022-08-05T03:14:13.375Z,96980.19
2022-08-05T03:16:40.356Z,96985.34
2022-08-05T03:19:17.190Z,96991.75
2022-08-05T03:21:53.560Z,97004.41
2022-08-05T03:24:29.563Z,97011.13
2022-08-05T03:26:56.531Z,97008.44
2022-08-05T03:29:24.006Z,97019.94
2022-08-05T03:31:56.533Z,97022.13
2022-08-05T03:34:27.783Z,97026.09
2022-08-05T03:36:55.392Z,97035.09
2022-08-05T03:39:27.134Z,97040.84
2022-08-05T03:41:56.354Z,97031.13
2022-08-05T03:44:23.602Z,97040.66
2022-08-05T03:46:50.294Z,97030.13
2022-08-05T03:49:17.109Z,97033.88
2022-08-05T03:52:48.333Z,97028.16
2022-08-05T03:56:06.261Z,97038.78
2022-08-05T03:57:49.009Z,97017.31
2022-08-05T04:00:17.468Z,97005.13
2022-08-05T04:02:58.648Z,96986.56
2022-08-05T04:05:33.158Z,96972.56
2022-08-05T04:08:05.628Z,96977.22
2022-08-05T04:10:37.353Z,96979.56
2022-08-05T04:13:04.612Z,96984.81
2022-08-05T04:15:33.385Z,96998.00
2022-08-05T04:18:07.259Z,97002.53
2022-08-05T04:20:34.559Z,96993.00
2022-08-05T04:23:01.418Z,96985.91
2022-08-05T04:25:57.555Z,97000.41
2022-08-05T04:28:15.033Z,97010.06
2022-08-05T04:30:43.642Z,96996.69
2022-08-05T04:33:10.212Z,96998.06
2022-08-05T04:36:15.848Z,97002.69
2022-08-05T04:38:23.519Z,97000.34
2022-08-05T04:41:07.352Z,97001.75
2022-08-05T04:43:36.052Z,96986.66
2022-08-05T04:46:04.561Z,96974.25
2022-08-05T04:48:31.901Z,96962.94
2022-08-05T04:51:03.218Z,96961.75
2022-08-05T04:53:36.465Z,96958.53
2022-08-05T04:56:33.958Z,96959.66
2022-08-05T04:58:55.456Z,96947.78
2022-08-05T05:02:05.709Z,96949.50
2022-08-05T05:04:09.544Z,96948.56
2022-08-05T05:06:43.063Z,96947.25
2022-08-05T05:09:14.290Z,96931.31
2022-08-05T05:11:54.011Z,96926.03
2022-08-05T05:14:27.855Z,96920.13
2022-08-05T05:16:58.718Z,96915.09
2022-08-05T05:19:27.489Z,96901.91
2022-08-05T05:22:03.459Z,96890.97
2022-08-05T05:24:57.526Z,96881.81
2022-08-05T05:27:41.552Z,96916.56
2022-08-05T05:30:29.136Z,96908.56
2022-08-05T05:33:00.791Z,96893.97
2022-08-05T05:35:29.108Z,96901.03
2022-08-05T05:38:02.977Z,96930.50
2022-08-05T05:40:32.231Z,96931.56
2022-08-05T05:43:00.174Z,96933.66
2022-08-05T05:45:29.091Z,96918.25
2022-08-05T05:48:07.110Z,96920.88
2022-08-05T05:50:41.323Z,96918.59
2022-08-05T05:53:22.559Z,96925.16
2022-08-05T05:55:51.892Z,96935.38
2022-08-05T05:58:30.339Z,96935.94
2022-08-05T06:01:12.161Z,96944.25
2022-08-05T06:04:01.305Z,96942.09
2022-08-05T06:06:28.141Z,96956.25
2022-08-05T06:08:57.472Z,96947.22
2022-08-05T06:11:23.989Z,96943.09
2022-08-05T06:13:55.436Z,96949.59
2022-08-05T06:16:30.384Z,96953.22
2022-08-05T06:19:00.941Z,96958.09
2022-08-05T06:21:36.168Z,96967.88
2022-08-05T06:24:06.239Z,96971.25
2022-08-05T06:26:35.104Z,96972.75
2022-08-05T06:29:03.384Z,96966.41
2022-08-05T06:31:49.263Z,96979.66
2022-08-05T06:34:19.952Z,96977.56
2022-08-05T06:36:57.238Z,96986.72
2022-08-05T06:39:27.152Z,96987.25
2022-08-05T06:41:56.206Z,96984.19
2022-08-05T06:44:25.310Z,96976.34
2022-08-05T06:46:52.817Z,96974.03
2022-08-05T06:49:59.876Z,96970.22
2022-08-05T06:52:07.909Z,96975.19
2022-08-05T06:54:54.448Z,96976.31
2022-08-05T06:58:02.746Z,96978.28
2022-08-05T07:00:09.884Z,96965.56
2022-08-05T07:02:43.754Z,96981.78
2022-08-05T07:05:18.720Z,96980.84
2022-08-05T07:07:48.920Z,96989.28
2022-08-05T07:10:16.479Z,96992.03
2022-08-05T07:13:02.352Z,96988.03
2022-08-05T07:16:00.745Z,97001.50
2022-08-05T07:18:30.331Z,96995.53
2022-08-05T07:20:57.476Z,97006.25
2022-08-05T07:23:26.545Z,96993.25
2022-08-05T07:25:56.948Z,97002.78
2022-08-05T07:28:25.135Z,97005.28
2022-08-05T07:30:54.887Z,96995.97
2022-08-05T07:33:35.234Z,97006.78
2022-08-05T07:36:20.180Z,97010.66
2022-08-05T07:38:47.474Z,97009.03
2022-08-05T07:42:07.915Z,97008.25
2022-08-05T07:44:06.373Z,97014.72
2022-08-05T07:46:41.180Z,97014.75
2022-08-05T07:49:14.842Z,97022.56
2022-08-05T07:51:53.734Z,97023.16
2022-08-05T07:54:31.082Z,97019.94
2022-08-05T07:57:13.341Z,97024.81
2022-08-05T07:59:43.246Z,97030.47
2022-08-05T08:02:16.794Z,97033.69
2022-08-05T08:04:48.680Z,97044.19
2022-08-05T08:07:17.833Z,97043.66
2022-08-05T08:09:45.501Z,97045.84
2022-08-05T08:12:35.182Z,97052.19
2022-08-05T08:15:02.296Z,97059.09
2022-08-05T08:17:30.287Z,97064.47
2022-08-05T08:20:22.390Z,97055.03
2022-08-05T08:22:43.534Z,97060.63
2022-08-05T08:25:16.303Z,97069.50
2022-08-05T08:27:47.551Z,97073.06
2022-08-05T08:30:19.098Z,97075.47
2022-08-05T08:32:56.906Z,97073.16
2022-08-05T08:35:26.736Z,97075.03
2022-08-05T08:37:54.436Z,97074.38
2022-08-05T08:40:23.406Z,97075.16
2022-08-05T08:42:52.570Z,97087.09
2022-08-05T08:45:26.575Z,97082.13
2022-08-05T08:48:10.610Z,97088.50
2022-08-05T08:51:22.246Z,97088.84
2022-08-05T08:53:37.573Z,97095.16
2022-08-05T08:56:07.160Z,97091.06
2022-08-05T08:58:43.506Z,97097.13
2022-08-05T09:01:16.469Z,97095.84
2022-08-05T09:03:47.624Z,97115.22
2022-08-05T09:06:20.022Z,97109.75
2022-08-05T09:08:48.401Z,97108.19
2022-08-05T09:11:15.340Z,97122.69
2022-08-05T09:14:10.184Z,97113.97
2022-08-05T09:16:29.652Z,97128.47
2022-08-05T09:18:56.188Z,97121.50
2022-08-05T09:22:17.832Z,97119.00
2022-08-05T09:24:15.621Z,97146.91
2022-08-05T09:26:43.747Z,97137.19
2022-08-05T09:29:10.893Z,97145.28
2022-08-05T09:32:41.804Z,97133.28
2022-08-05T09:34:53.511Z,97140.19
2022-08-05T09:38:17.266Z,97142.47
2022-08-05T09:40:09.415Z,97138.88
2022-08-05T09:42:41.210Z,97155.34
2022-08-05T09:45:17.973Z,97150.69
2022-08-05T09:47:57.438Z,97143.13
2022-08-05T09:50:38.822Z,97157.38
2022-08-05T09:53:17.144Z,97160.97
2022-08-05T09:55:59.293Z,97172.53
2022-08-05T09:58:31.162Z,97171.81
2022-08-05T10:01:14.801Z,97178.69
2022-08-05T10:04:00.275Z,97179.78
2022-08-05T10:06:27.987Z,97185.25
2022-08-05T10:08:55.613Z,97190.47
2022-08-05T10:11:22.810Z,97195.91
2022-08-05T10:13:49.984Z,97199.75
2022-08-05T10:16:41.998Z,97201.22
2022-08-05T10:19:23.579Z,97203.28
2022-08-05T10:22:07.889Z,97201.97
2022-08-05T10:24:39.754Z,97197.91
2022-08-05T10:27:07.580Z,97198.78
2022-08-05T10:30:06.706Z,97208.59
2022-08-05T10:32:53.604Z,97215.16
2022-08-05T10:35:10.418Z,97220.41
2022-08-05T10:37:40.019Z,97214.47
2022-08-05T10:40:20.570Z,97210.66
2022-08-05T10:42:59.051Z,97229.94
2022-08-05T10:45:40.351Z,97231.06
2022-08-05T10:48:52.622Z,97242.28
2022-08-05T10:51:23.068Z,97246.72
2022-08-05T10:54:01.042Z,97245.16
2022-08-05T10:56:30.368Z,97255.91
2022-08-05T10:59:11.439Z,97268.34
2022-08-05T11:01:54.535Z,97260.13
2022-08-05T11:04:31.794Z,97265.41
2022-08-05T11:07:04.794Z,97274.47
2022-08-05T11:09:45.400Z,97287.56
2022-08-05T11:12:31.745Z,97290.66
2022-08-05T11:15:19.615Z,97296.91
2022-08-05T11:18:07.393Z,97312.22
2022-08-05T11:20:44.126Z,97305.91
2022-08-05T11:23:26.419Z,97320.13
2022-08-05T11:26:29.061Z,97307.59
2022-08-05T11:29:12.788Z,97321.91
2022-08-05T11:31:58.790Z,97326.41
2022-08-05T11:34:38.778Z,97328.38
2022-08-05T11:38:14.343Z,97344.13
2022-08-05T11:40:00.376Z,97350.47
2022-08-05T11:42:32.247Z,97342.97
2022-08-05T11:45:05.323Z,97349.53
2022-08-05T11:47:48.235Z,97349.91
2022-08-05T11:50:16.028Z,97351.28
2022-08-05T11:52:44.151Z,97360.94
2022-08-05T11:55:13.550Z,97365.25
2022-08-05T11:58:10.520Z,97370.91
2022-08-05T12:00:32.428Z,97363.81
2022-08-05T12:03:31.760Z,97373.72
2022-08-05T12:06:05.838Z,97361.44
2022-08-05T12:08:33.015Z,97375.19
2022-08-05T12:11:05.425Z,97375.13
2022-08-05T12:13:48.808Z,97377.41
2022-08-05T12:16:18.928Z,97377.56
2022-08-05T12:18:48.994Z,97369.59
2022-08-05T12:21:30.052Z,97370.69
2022-08-05T12:24:14.272Z,97386.91
2022-08-05T12:26:44.517Z,97390.00
2022-08-05T12:29:17.891Z,97389.38
2022-08-05T12:31:54.577Z,97390.31
2022-08-05T12:34:25.762Z,97388.44
2022-08-05T12:36:53.645Z,97393.16
2022-08-05T12:39:20.768Z,97389.09
2022-08-05T12:41:47.563Z,97402.81
2022-08-05T12:44:28.583Z,97400.69
2022-08-05T12:47:00.649Z,97395.06
2022-08-05T12:50:04.652Z,97391.91
2022-08-05T12:52:38.552Z,97397.09
2022-08-05T12:55:26.304Z,97398.44
2022-08-05T12:58:49.830Z,97405.63
2022-08-05T13:02:00.489Z,97407.25
2022-08-05T13:03:41.915Z,97398.28
2022-08-05T13:06:16.055Z,97417.41
2022-08-05T13:08:50.587Z,97416.16
2022-08-05T13:12:01.716Z,97403.81
2022-08-05T13:14:19.503Z,97402.72
2022-08-05T13:17:10.640Z,97419.13
2022-08-05T13:19:51.691Z,97431.69
2022-08-05T13:22:28.287Z,97435.34
2022-08-05T13:24:58.227Z,97440.00
2022-08-05T13:27:37.741Z,97434.75
2022-08-05T13:30:33.955Z,97442.34
2022-08-05T13:33:02.426Z,97445.97
2022-08-05T13:35:31.429Z,97447.94
2022-08-05T13:38:15.772Z,97445.69
2022-08-05T13:40:55.178Z,97457.91
2022-08-05T13:43:22.295Z,97462.16
2022-08-05T13:45:48.979Z,97457.38
2022-08-05T13:48:57.366Z,97466.84
2022-08-05T13:51:13.665Z,97463.41
2022-08-05T13:53:48.200Z,97474.56
2022-08-05T13:56:18.977Z,97474.63
2022-08-05T13:58:52.973Z,97471.56
2022-08-05T14:01:22.008Z,97474.69
2022-08-05T14:04:12.795Z,97458.97
2022-08-05T14:06:39.345Z,97463.66
2022-08-05T14:09:14.244Z,97468.03
2022-08-05T14:12:04.086Z,97456.84
2022-08-05T14:14:33.542Z,97459.53
2022-08-05T14:17:00.355Z,97457.22
2022-08-05T14:19:27.354Z,97461.16
2022-08-05T14:22:11.793Z,97459.97
2022-08-05T14:24:39.886Z,97464.34
2022-08-05T14:27:17.669Z,97460.03
2022-08-05T14:29:45.001Z,97471.47
2022-08-05T14:32:27.115Z,97470.38
2022-08-05T14:34:54.731Z,97465.47
2022-08-05T14:37:42.136Z,97470.97
2022-08-05T14:40:14.285Z,97467.47
2022-08-05T14:42:43.797Z,97469.50
2022-08-05T14:45:10.752Z,97472.94
2022-08-05T14:48:05.284Z,97483.34
2022-08-05T14:50:25.279Z,97474.09
2022-08-05T14:52:57.573Z,97473.66
2022-08-05T14:55:25.900Z,97471.56
2022-08-05T14:58:10.888Z,97474.13
2022-08-05T15:00:58.893Z,97473.66
2022-08-05T15:03:33.317Z,97475.16
2022-08-05T15:06:07.642Z,97472.25
2022-08-05T15:09:01.226Z,97477.97
2022-08-05T15:11:51.223Z,97473.81
2022-08-05T15:14:33.243Z,97475.66
2022-08-05T15:17:01.680Z,97472.53
2022-08-05T15:19:30.763Z,97470.78
2022-08-05T15:21:58.018Z,97477.09
2022-08-05T15:24:27.524Z,97484.88
2022-08-05T15:26:54.098Z,97474.16
2022-08-05T15:29:22.933Z,97469.91
2022-08-05T15:31:53.097Z,97482.41
2022-08-05T15:34:33.167Z,97475.09
2022-08-05T15:37:06.393Z,97472.59
2022-08-05T15:40:58.917Z,97483.25
2022-08-05T15:42:53.489Z,97483.13
2022-08-05T15:45:14.728Z,97480.53
2022-08-05T15:47:42.250Z,97492.88
2022-08-05T15:50:09.936Z,97487.00
2022-08-05T15:52:53.163Z,97496.69
2022-08-05T15:55:24.527Z,97500.13
2022-08-05T15:57:52.034Z,97498.50
2022-08-05T16:00:32.624Z,97504.19
2022-08-05T16:03:05.857Z,97502.78
2022-08-05T16:05:32.427Z,97507.81
2022-08-05T16:07:59.047Z,97510.47
2022-08-05T16:10:26.840Z,97518.81
2022-08-05T16:12:56.032Z,97507.06
2022-08-05T16:15:23.213Z,97504.25
2022-08-05T16:17:57.543Z,97517.59
2022-08-05T16:20:25.042Z,97507.97
2022-08-05T16:22:51.621Z,97513.69
2022-08-05T16:25:18.617Z,97510.63
2022-08-05T16:27:47.117Z,97507.88
2022-08-05T16:30:32.191Z,97519.97
2022-08-05T16:32:59.560Z,97517.22
2022-08-05T16:35:28.416Z,97522.13
2022-08-05T16:38:02.683Z,97521.78
2022-08-05T16:40:51.944Z,97526.97
2022-08-05T16:43:23.698Z,97518.97
2022-08-05T16:46:05.234Z,97532.81
2022-08-05T16:48:35.313Z,97539.56
2022-08-05T16:51:02.406Z,97539.66
2022-08-05T16:54:05.274Z,97543.97
2022-08-05T16:56:22.247Z,97526.63
2022-08-05T16:58:50.047Z,97539.06
2022-08-05T17:01:16.879Z,97543.25
2022-08-05T17:03:45.587Z,97540.56
2022-08-05T17:06:12.353Z,97543.38
2022-08-05T17:08:52.410Z,97538.63
2022-08-05T17:11:20.323Z,97540.59
2022-08-05T17:13:50.151Z,97543.28
2022-08-05T17:16:32.810Z,97553.31
2022-08-05T17:19:00.708Z,97551.41
2022-08-05T17:21:35.465Z,97550.53
2022-08-05T17:24:14.288Z,97552.00
2022-08-05T17:26:50.824Z,97562.16
2022-08-05T17:29:18.004Z,97558.22
2022-08-05T17:31:58.371Z,97559.25
2022-08-05T17:34:30.156Z,97554.38
2022-08-05T17:36:59.895Z,97570.53
2022-08-05T17:39:33.611Z,97564.00
2022-08-05T17:42:17.418Z,97562.97
2022-08-05T17:44:50.074Z,97565.81
2022-08-05T17:47:22.014Z,97567.44
2022-08-05T17:49:56.768Z,97568.31
2022-08-05T17:52:27.450Z,97573.06
2022-08-05T17:54:54.255Z,97580.69
2022-08-05T17:57:22.029Z,97589.84
2022-08-05T18:00:05.159Z,97590.75
2022-08-05T18:02:34.185Z,97588.69
2022-08-05T18:05:03.678Z,97596.66
2022-08-05T18:07:41.360Z,97592.63
2022-08-05T18:10:10.353Z,97605.38
2022-08-05T18:12:37.565Z,97611.53
2022-08-05T18:15:04.748Z,97612.78
2022-08-05T18:17:59.490Z,97628.47
2022-08-05T18:20:19.425Z,97626.91
2022-08-05T18:22:57.223Z,97638.09
2022-08-05T18:25:25.127Z,97639.47
2022-08-05T18:27:52.382Z,97644.66
2022-08-05T18:30:19.531Z,97647.41
2022-08-05T18:32:53.583Z,97646.41
2022-08-05T18:35:49.687Z,97651.19
2022-08-05T18:38:14.121Z,97656.16
2022-08-05T18:41:56.359Z,97652.13
2022-08-05T18:43:37.925Z,97658.75
2022-08-05T18:46:09.533Z,97648.34
2022-08-05T18:48:41.690Z,97653.28
2022-08-05T18:52:02.858Z,97664.63
2022-08-05T18:54:14.404Z,97668.16
2022-08-05T18:56:41.847Z,97666.69
2022-08-05T18:59:44.142Z,97670.00
2022-08-05T19:02:04.697Z,97668.19
2022-08-05T19:05:01.301Z,97678.81
2022-08-05T19:07:24.937Z,97669.19
2022-08-05T19:09:56.894Z,97675.72
2022-08-05T19:12:23.802Z,97682.06
2022-08-05T19:15:00.705Z,97678.78
2022-08-05T19:17:58.200Z,97689.38
2022-08-05T19:20:16.081Z,97687.94
2022-08-05T19:22:44.613Z,97699.72
2022-08-05T19:25:29.687Z,97709.25
2022-08-05T19:27:56.839Z,97716.59
2022-08-05T19:30:23.719Z,97721.66
2022-08-05T19:32:50.471Z,97727.72
2022-08-05T19:35:17.008Z,97724.38
2022-08-05T19:38:04.651Z,97732.03
2022-08-05T19:40:33.633Z,97738.13
2022-08-05T19:43:04.820Z,97737.44
2022-08-05T19:45:33.341Z,97748.25
2022-08-05T19:48:04.257Z,97758.38
2022-08-05T19:50:32.069Z,97740.94
2022-08-05T19:52:58.623Z,97755.00
2022-08-05T19:56:15.569Z,97755.66
2022-08-05T19:58:28.353Z,97758.88
2022-08-05T20:00:56.392Z,97764.19
2022-08-05T20:03:24.523Z,97768.97
2022-08-05T20:05:56.553Z,97777.25
2022-08-05T20:08:24.827Z,97777.09
2022-08-05T20:10:52.281Z,97787.72
2022-08-05T20:13:30.136Z,97788.72
2022-08-05T20:16:06.326Z,97791.06
2022-08-05T20:18:36.316Z,97803.38
2022-08-05T20:21:05.048Z,97807.97
2022-08-05T20:23:39.358Z,97803.56
2022-08-05T20:26:17.861Z,97812.25
2022-08-05T20:28:50.476Z,97822.66
2022-08-05T20:31:21.706Z,97813.91
2022-08-05T20:33:55.390Z,97816.66
2022-08-05T20:36:24.000Z,97799.31
2022-08-05T20:38:53.534Z,97823.75
2022-08-05T20:41:24.139Z,97816.41
2022-08-05T20:43:59.049Z,97813.50
2022-08-05T20:46:27.086Z,97813.25
2022-08-05T20:48:53.683Z,97818.09
2022-08-05T20:51:21.335Z,97824.84
2022-08-05T20:53:56.785Z,97824.47
2022-08-05T20:56:29.708Z,97829.47
2022-08-05T20:59:11.228Z,97829.47
2022-08-05T21:01:45.311Z,97835.56
2022-08-05T21:04:11.912Z,97835.25
2022-08-05T21:06:45.168Z,97840.19
2022-08-05T21:09:14.782Z,97839.63
2022-08-05T21:12:08.912Z,97846.59
2022-08-05T21:14:34.809Z,97840.81
2022-08-05T21:17:03.036Z,97846.59
2022-08-05T21:19:47.005Z,97841.97
2022-08-05T21:22:18.541Z,97841.66
2022-08-05T21:24:51.401Z,97848.97
2022-08-05T21:27:20.521Z,97851.50
2022-08-05T21:29:52.275Z,97855.63
2022-08-05T21:32:20.882Z,97852.06
2022-08-05T21:34:56.065Z,97855.41
2022-08-05T21:37:35.287Z,97857.88
2022-08-05T21:40:13.129Z,97859.78
2022-08-05T21:42:44.101Z,97863.41
2022-08-05T21:45:11.901Z,97867.72
2022-08-05T21:47:56.302Z,97866.13
2022-08-05T21:50:27.070Z,97869.25
2022-08-05T21:52:58.923Z,97875.69
2022-08-05T21:55:43.091Z,97875.06
2022-08-05T21:58:19.650Z,97880.03
2022-08-05T22:00:51.285Z,97887.63
2022-08-05T22:03:18.531Z,97879.88
2022-08-05T22:06:06.269Z,97877.44
2022-08-05T22:08:34.949Z,97888.34
2022-08-05T22:11:01.545Z,97890.69
2022-08-05T22:14:32.342Z,97885.75
2022-08-05T22:16:39.565Z,97894.31
2022-08-05T22:19:01.431Z,97889.38
2022-08-05T22:21:28.026Z,97886.22
2022-08-05T22:24:40.272Z,97891.66
2022-08-05T22:27:25.642Z,97902.59
2022-08-05T22:30:16.035Z,97903.59
2022-08-05T22:32:43.889Z,97901.25
2022-08-05T22:35:12.885Z,97905.22
2022-08-05T22:37:58.492Z,97908.84
2022-08-05T22:40:26.833Z,97900.94
2022-08-05T22:42:58.117Z,97908.84
2022-08-05T22:45:26.465Z,97908.19
2022-08-05T22:47:57.055Z,97906.56
2022-08-05T22:50:26.786Z,97907.19
2022-08-05T22:52:54.857Z,97908.34
2022-08-05T22:55:23.120Z,97914.63
2022-08-05T22:57:50.719Z,97906.88
2022-08-05T23:00:20.573Z,97903.22
2022-08-05T23:02:48.192Z,97915.59
2022-08-05T23:05:15.774Z,97917.75
2022-08-05T23:07:44.988Z,97913.31
2022-08-05T23:10:12.541Z,97910.50
2022-08-05T23:12:39.095Z,97920.06
2022-08-05T23:15:08.903Z,97919.41
2022-08-05T23:17:37.944Z,97931.94
2022-08-05T23:20:24.425Z,97929.47
2022-08-05T23:22:55.634Z,97935.72
2022-08-05T23:25:53.009Z,97944.78
2022-08-05T23:28:09.861Z,97949.19
2022-08-05T23:30:40.473Z,97948.53
2022-08-05T23:33:16.486Z,97956.13
2022-08-05T23:35:55.976Z,97962.69
2022-08-05T23:38:23.554Z,97969.97
2022-08-05T23:40:52.442Z,97964.03
2022-08-05T23:43:25.121Z,97960.06
2022-08-05T23:46:03.964Z,97970.16
2022-08-05T23:48:30.534Z,97959.78
2022-08-05T23:50:57.049Z,97966.53
2022-08-05T23:53:28.526Z,97975.44
2022-08-05T23:56:11.825Z,97974.13
2022-08-05T23:58:38.567Z,97968.19
